Jump River, Wisconsin
Current Conditions -  °F | °C
As of 6:35 PM on Monday 24 Nov 2014 (Local Time) from KRCX Reporting Station
Overcast Overcast  
Wind Chill:   Ceiling: 1400
Heat Index: 24°   Visibility: 10mi
Dew Point: 19°   Wind: 18mph
Humidity: 84%   Direction: 320°NW
Pressure: 29.58"   Gusts: 24mph
Location:  45.35°N, 90.8°W
Report Text: KRCX 250035Z AUTO 32016G21KT 10SM OVC014 M05/M07 A2958 RMK AO2 T10471070
Loading
Personal Weather Stations






























Interactive Weather Map New forecast layout! Learn more

10-Day Weather Forecast

Advertisements
Track Severe Weather on mobile